Time,TemperatureF,DewpointF,PressureIn,WindDirection,WindDirectionDegrees,WindSpeedMPH,WindSpeedGustMPH,Humidity,HourlyPrecipIn,Conditions,Clouds,dailyrainin,SoftwareType,DateUTC
2013-06-19 00:02:00,56.0,55.0,-100.00,WNW,285,2.0,3.0,97,0.00,,,-99.99,,2013-06-19 04:02:00,
2013-06-19 00:12:00,55.0,55.0,-100.00,NW,315,1.0,2.0,98,0.00,,,-99.99,,2013-06-19 04:12:00,
2013-06-19 00:22:00,55.0,55.0,-100.00,North,-999,-999.0,-999.0,98,-99.99,,,-99.99,,2013-06-19 04:22:00,
2013-06-19 00:32:00,55.0,55.0,-100.00,WNW,285,1.0,2.0,98,0.00,,,-99.99,,2013-06-19 04:32:00,
2013-06-19 00:43:00,55.0,55.0,-100.00,West,265,1.0,2.0,98,0.00,,,-99.99,,2013-06-19 04:43:00,
2013-06-19 00:53:00,55.0,55.0,-100.00,NW,315,1.0,2.0,98,0.00,,,-99.99,,2013-06-19 04:53:00,
2013-06-19 01:01:00,56.0,56.0,-100.00,West,275,1.0,2.0,99,0.00,,,-99.99,,2013-06-19 05:01:00,
2013-06-19 01:11:00,56.0,56.0,-100.00,WNW,300,1.0,3.0,99,0.00,,,-99.99,,2013-06-19 05:11:00,
2013-06-19 01:23:00,56.0,56.0,-100.00,West,275,1.0,4.0,99,0.00,,,-99.99,,2013-06-19 05:23:00,
2013-06-19 01:32:00,56.0,56.0,-100.00,NNE,15,1.0,2.0,99,0.00,,,-99.99,,2013-06-19 05:32:00,
2013-06-19 01:43:00,56.0,56.0,-100.00,NW,305,1.0,2.0,99,0.00,,,-99.99,,2013-06-19 05:43:00,
2013-06-19 01:52:00,56.0,56.0,-100.00,WNW,295,1.0,5.0,99,0.00,,,-99.99,,2013-06-19 05:52:00,
2013-06-19 02:02:00,56.0,56.0,-100.00,WNW,285,2.0,4.0,99,0.00,,,-99.99,,2013-06-19 06:02:00,
2013-06-19 02:11:00,56.0,56.0,-100.00,NW,305,1.0,4.0,99,0.00,,,-99.99,,2013-06-19 06:11:00,
2013-06-19 02:22:00,56.0,56.0,-100.00,North,355,1.0,6.0,99,0.00,,,-99.99,,2013-06-19 06:22:00,
2013-06-19 02:34:00,55.0,55.0,-100.00,WNW,290,1.0,4.0,99,0.00,,,-99.99,,2013-06-19 06:34:00,
2013-06-19 02:42:00,55.0,55.0,-100.00,West,280,1.0,4.0,99,0.00,,,-99.99,,2013-06-19 06:42:00,
2013-06-19 02:52:00,55.0,55.0,-100.00,WNW,300,1.0,3.0,99,0.00,,,-99.99,,2013-06-19 06:52:00,
2013-06-19 03:01:00,55.0,54.0,-100.00,North,-999,-999.0,-999.0,99,0.00,,,-99.99,,2013-06-19 07:01:00,
2013-06-19 03:12:00,54.0,54.0,-100.00,NW,315,1.0,3.0,99,0.00,,,-99.99,,2013-06-19 07:12:00,
2013-06-19 03:22:00,54.0,54.0,-100.00,NW,310,1.0,4.0,99,0.00,,,-99.99,,2013-06-19 07:22:00,
2013-06-19 03:33:00,53.0,53.0,-100.00,WNW,290,1.0,2.0,99,0.00,,,-99.99,,2013-06-19 07:33:00,
2013-06-19 03:43:00,53.0,53.0,-100.00,WNW,300,0.0,3.0,99,0.00,,,-99.99,,2013-06-19 07:43:00,
2013-06-19 03:53:00,53.0,53.0,-100.00,NW,315,1.0,3.0,99,0.00,,,-99.99,,2013-06-19 07:53:00,
2013-06-19 04:02:00,53.0,53.0,-100.00,West,280,1.0,2.0,99,0.00,,,-99.99,,2013-06-19 08:02:00,
2013-06-19 04:11:00,53.0,52.0,-100.00,WNW,295,1.0,2.0,99,0.00,,,-99.99,,2013-06-19 08:11:00,
2013-06-19 04:22:00,53.0,52.0,-100.00,West,270,1.0,2.0,99,0.00,,,-99.99,,2013-06-19 08:22:00,
2013-06-19 04:34:00,52.0,52.0,-100.00,West,280,0.0,1.0,99,0.00,,,-99.99,,2013-06-19 08:34:00,
2013-06-19 04:43:00,52.0,52.0,-100.00,West,280,1.0,2.0,99,0.00,,,-99.99,,2013-06-19 08:43:00,
2013-06-19 04:53:00,52.0,52.0,-100.00,West,280,1.0,4.0,99,0.00,,,-99.99,,2013-06-19 08:53:00,
2013-06-19 05:02:00,52.0,51.0,-100.00,West,260,1.0,2.0,99,0.00,,,-99.99,,2013-06-19 09:02:00,
2013-06-19 05:12:00,51.0,51.0,-100.00,West,270,1.0,4.0,99,0.00,,,-99.99,,2013-06-19 09:12:00,
2013-06-19 05:22:00,51.0,51.0,-100.00,West,260,1.0,3.0,99,0.00,,,-99.99,,2013-06-19 09:22:00,
2013-06-19 05:34:00,51.0,51.0,-100.00,West,280,1.0,2.0,99,0.00,,,-99.99,,2013-06-19 09:34:00,
2013-06-19 05:44:00,51.0,50.0,-100.00,West,280,0.0,2.0,98,0.00,,,-99.99,,2013-06-19 09:44:00,
2013-06-19 05:53:00,51.0,51.0,-100.00,WNW,300,1.0,2.0,98,0.00,,,-99.99,,2013-06-19 09:53:00,
2013-06-19 06:02:00,51.0,50.0,-100.00,WNW,285,1.0,2.0,98,0.00,,,-99.99,,2013-06-19 10:02:00,
2013-06-19 06:12:00,51.0,50.0,-100.00,WNW,285,1.0,2.0,98,0.00,,,-99.99,,2013-06-19 10:12:00,
2013-06-19 06:22:00,51.0,51.0,-100.00,West,280,0.0,3.0,98,0.00,,,-99.99,,2013-06-19 10:22:00,
2013-06-19 06:33:00,52.0,51.0,-100.00,North,350,1.0,1.0,98,0.00,,,-99.99,,2013-06-19 10:33:00,
2013-06-19 06:42:00,53.0,53.0,-100.00,North,10,0.0,2.0,98,0.00,,,-99.99,,2013-06-19 10:42:00,
2013-06-19 06:52:00,53.0,53.0,-100.00,WNW,290,1.0,4.0,98,0.00,,,-99.99,,2013-06-19 10:52:00,
2013-06-19 07:02:00,54.0,53.0,-100.00,North,350,1.0,2.0,96,0.00,,,-99.99,,2013-06-19 11:02:00,
2013-06-19 07:12:00,54.0,53.0,-100.00,WNW,290,1.0,4.0,94,0.00,,,-99.99,,2013-06-19 11:12:00,
2013-06-19 07:22:00,55.0,52.0,-100.00,WNW,295,2.0,4.0,89,0.00,,,-99.99,,2013-06-19 11:22:00,
2013-06-19 07:54:00,57.0,51.0,-100.00,WNW,300,1.0,4.0,80,0.00,,,-99.99,,2013-06-19 11:54:00,
2013-06-19 08:12:00,59.0,52.0,-100.00,North,0,1.0,4.0,78,0.00,,,-99.99,,2013-06-19 12:12:00,
2013-06-19 08:34:00,60.0,51.0,-100.00,West,265,2.0,6.0,73,0.00,,,-99.99,,2013-06-19 12:34:00,
2013-06-19 08:44:00,60.0,51.0,-100.00,WNW,290,3.0,6.0,70,0.00,,,-99.99,,2013-06-19 12:44:00,
2013-06-19 08:53:00,61.0,51.0,-100.00,West,275,4.0,7.0,70,0.00,,,-99.99,,2013-06-19 12:53:00,
2013-06-19 09:02:00,61.0,51.0,-100.00,WNW,295,2.0,7.0,69,0.00,,,-99.99,,2013-06-19 13:02:00,
2013-06-19 09:12:00,62.0,51.0,-100.00,West,260,2.0,7.0,67,0.00,,,-99.99,,2013-06-19 13:12:00,
2013-06-19 09:22:00,62.0,51.0,-100.00,WNW,285,1.0,7.0,67,0.00,,,-99.99,,2013-06-19 13:22:00,
2013-06-19 09:33:00,62.0,51.0,-100.00,NW,305,3.0,5.0,65,0.00,,,-99.99,,2013-06-19 13:33:00,
2013-06-19 09:43:00,63.0,52.0,-100.00,West,280,2.0,6.0,65,0.00,,,-99.99,,2013-06-19 13:43:00,
2013-06-19 09:53:00,64.0,51.0,-100.00,NNW,335,1.0,4.0,63,0.00,,,-99.99,,2013-06-19 13:53:00,
2013-06-19 10:02:00,65.0,51.0,-100.00,North,-999,-999.0,-999.0,59,0.00,,,-99.99,,2013-06-19 14:02:00,
2013-06-19 10:12:00,65.0,51.0,-100.00,NNE,30,1.0,4.0,59,0.00,,,-99.99,,2013-06-19 14:12:00,
2013-06-19 10:22:00,67.0,50.0,-100.00,West,265,1.0,7.0,54,0.00,,,-99.99,,2013-06-19 14:22:00,
2013-06-19 10:33:00,67.0,49.0,-100.00,West,270,2.0,7.0,51,0.00,,,-99.99,,2013-06-19 14:33:00,
2013-06-19 10:44:00,67.0,48.0,-100.00,SW,230,1.0,6.0,50,0.00,,,-99.99,,2013-06-19 14:44:00,
2013-06-19 10:53:00,67.0,49.0,-100.00,North,350,1.0,6.0,50,0.00,,,-99.99,,2013-06-19 14:53:00,
2013-06-19 11:02:00,69.0,49.0,-100.00,West,265,1.0,7.0,48,0.00,,,-99.99,,2013-06-19 15:02:00,
2013-06-19 11:11:00,69.0,47.0,-100.00,South,180,2.0,6.0,46,0.00,,,-99.99,,2013-06-19 15:11:00,
2013-06-19 11:22:00,69.0,47.0,-100.00,SSE,160,2.0,7.0,46,0.00,,,-99.99,,2013-06-19 15:22:00,
2013-06-19 11:33:00,68.0,45.0,-100.00,North,0,2.0,7.0,42,0.00,,,-99.99,,2013-06-19 15:33:00,
2013-06-19 11:43:00,69.0,45.0,-100.00,WNW,295,1.0,4.0,41,0.00,,,-99.99,,2013-06-19 15:43:00,
2013-06-19 11:53:00,70.0,45.0,-100.00,ENE,60,1.0,5.0,40,0.00,,,-99.99,,2013-06-19 15:53:00,
2013-06-19 12:01:00,70.0,46.0,-100.00,NE,35,1.0,6.0,41,0.00,,,-99.99,,2013-06-19 16:01:00,
2013-06-19 12:11:00,72.0,45.0,-100.00,NE,45,1.0,6.0,38,0.00,,,-99.99,,2013-06-19 16:11:00,
2013-06-19 12:22:00,70.0,48.0,-100.00,NNW,345,2.0,7.0,45,0.00,,,-99.99,,2013-06-19 16:22:00,
2013-06-19 12:34:00,71.0,46.0,-100.00,WNW,290,1.0,6.0,39,0.00,,,-99.99,,2013-06-19 16:34:00,
2013-06-19 12:43:00,72.0,42.0,-100.00,North,-999,-999.0,-999.0,33,0.00,,,-99.99,,2013-06-19 16:43:00,
2013-06-19 12:52:00,72.0,42.0,-100.00,WSW,240,3.0,7.0,34,0.00,,,-99.99,,2013-06-19 16:52:00,
2013-06-19 13:02:00,71.0,43.0,-100.00,WNW,285,4.0,7.0,36,0.00,,,-99.99,,2013-06-19 17:02:00,
2013-06-19 13:12:00,71.0,45.0,-100.00,West,280,3.0,9.0,40,0.00,,,-99.99,,2013-06-19 17:12:00,
2013-06-19 13:22:00,72.0,43.0,-100.00,North,-999,-999.0,-999.0,35,0.00,,,-99.99,,2013-06-19 17:22:00,
2013-06-19 13:34:00,73.0,42.0,-100.00,SSE,160,2.0,8.0,32,0.00,,,-99.99,,2013-06-19 17:34:00,
2013-06-19 13:43:00,74.0,44.0,-100.00,NE,55,1.0,6.0,33,0.00,,,-99.99,,2013-06-19 17:43:00,
2013-06-19 13:53:00,73.0,45.0,-100.00,North,350,1.0,7.0,36,0.00,,,-99.99,,2013-06-19 17:53:00,
2013-06-19 14:02:00,73.0,44.0,-100.00,NW,315,1.0,9.0,34,0.00,,,-99.99,,2013-06-19 18:02:00,
2013-06-19 14:12:00,74.0,41.0,-100.00,WSW,240,3.0,8.0,30,0.00,,,-99.99,,2013-06-19 18:12:00,
2013-06-19 14:24:00,73.0,43.0,-100.00,South,175,2.0,5.0,33,0.00,,,-99.99,,2013-06-19 18:24:00,
2013-06-19 14:33:00,75.0,44.0,-100.00,SE,140,2.0,6.0,33,0.00,,,-99.99,,2013-06-19 18:33:00,
2013-06-19 14:44:00,75.0,43.0,-100.00,SE,140,2.0,4.0,31,0.00,,,-99.99,,2013-06-19 18:44:00,
2013-06-19 14:53:00,74.0,43.0,-100.00,SSW,200,2.0,7.0,33,0.00,,,-99.99,,2013-06-19 18:53:00,
2013-06-19 15:01:00,73.0,42.0,-100.00,West,265,2.0,9.0,31,0.00,,,-99.99,,2013-06-19 19:01:00,
2013-06-19 15:12:00,75.0,44.0,-100.00,North,0,2.0,9.0,33,0.00,,,-99.99,,2013-06-19 19:12:00,
2013-06-19 15:22:00,75.0,42.0,-100.00,South,180,1.0,9.0,30,0.00,,,-99.99,,2013-06-19 19:22:00,
2013-06-19 15:32:00,74.0,42.0,-100.00,West,275,3.0,9.0,32,0.00,,,-99.99,,2013-06-19 19:32:00,
2013-06-19 16:02:00,74.0,43.0,-100.00,South,170,4.0,11.0,32,0.00,,,-99.99,,2013-06-19 20:02:00,
2013-06-19 16:11:00,74.0,42.0,-100.00,West,280,2.0,10.0,31,0.00,,,-99.99,,2013-06-19 20:11:00,
2013-06-19 16:22:00,75.0,41.0,-100.00,West,270,2.0,6.0,29,0.00,,,-99.99,,2013-06-19 20:22:00,
2013-06-19 16:33:00,74.0,43.0,-100.00,WSW,255,3.0,9.0,31,0.00,,,-99.99,,2013-06-19 20:33:00,
2013-06-19 16:42:00,76.0,43.0,-100.00,North,5,2.0,4.0,31,0.00,,,-99.99,,2013-06-19 20:42:00,
2013-06-19 16:52:00,75.0,42.0,-100.00,WNW,285,2.0,6.0,30,0.00,,,-99.99,,2013-06-19 20:52:00,
2013-06-19 17:02:00,75.0,41.0,-100.00,SSE,160,3.0,8.0,30,0.00,,,-99.99,,2013-06-19 21:02:00,
2013-06-19 17:12:00,75.0,43.0,-100.00,NNW,345,1.0,8.0,31,0.00,,,-99.99,,2013-06-19 21:12:00,
2013-06-19 17:22:00,76.0,45.0,-100.00,WSW,250,1.0,5.0,33,0.00,,,-99.99,,2013-06-19 21:22:00,
2013-06-19 17:33:00,75.0,43.0,-100.00,WSW,250,2.0,9.0,31,0.00,,,-99.99,,2013-06-19 21:33:00,
2013-06-19 17:44:00,74.0,45.0,-100.00,SSE,165,2.0,6.0,34,0.00,,,-99.99,,2013-06-19 21:44:00,
2013-06-19 17:52:00,74.0,40.0,-100.00,South,185,2.0,6.0,29,0.00,,,-99.99,,2013-06-19 21:52:00,
2013-06-19 18:02:00,74.0,42.0,-100.00,SSE,165,2.0,6.0,31,0.00,,,-99.99,,2013-06-19 22:02:00,
2013-06-19 18:11:00,73.0,42.0,-100.00,SSE,165,3.0,6.0,32,0.00,,,-99.99,,2013-06-19 22:11:00,
2013-06-19 18:22:00,73.0,42.0,-100.00,SSE,155,2.0,8.0,32,0.00,,,-99.99,,2013-06-19 22:22:00,
2013-06-19 18:34:00,72.0,43.0,-100.00,SSW,210,2.0,5.0,34,0.00,,,-99.99,,2013-06-19 22:34:00,
2013-06-19 18:43:00,72.0,43.0,-100.00,SW,225,2.0,5.0,35,0.00,,,-99.99,,2013-06-19 22:43:00,
2013-06-19 19:02:00,72.0,42.0,-100.00,West,280,2.0,5.0,33,0.00,,,-99.99,,2013-06-19 23:02:00,
2013-06-19 19:12:00,71.0,43.0,-100.00,West,275,2.0,6.0,35,0.00,,,-99.99,,2013-06-19 23:12:00,
2013-06-19 19:23:00,71.0,43.0,-100.00,East,90,1.0,4.0,36,0.00,,,-99.99,,2013-06-19 23:23:00,
2013-06-19 19:33:00,71.0,43.0,-100.00,SW,225,1.0,4.0,36,0.00,,,-99.99,,2013-06-19 23:33:00,
2013-06-19 19:43:00,70.0,45.0,-100.00,WSW,255,0.0,2.0,41,0.00,,,-99.99,,2013-06-19 23:43:00,
2013-06-19 19:52:00,69.0,46.0,-100.00,East,90,1.0,2.0,44,0.00,,,-99.99,,2013-06-19 23:52:00,
2013-06-19 20:01:00,68.0,49.0,-100.00,NE,45,0.0,1.0,50,0.00,,,-99.99,,2013-06-20 00:01:00,
2013-06-19 20:12:00,67.0,48.0,-100.00,East,80,0.0,1.0,50,0.00,,,-99.99,,2013-06-20 00:12:00,
2013-06-19 20:22:00,66.0,48.0,-100.00,NE,45,0.0,1.0,51,0.00,,,-99.99,,2013-06-20 00:22:00,
2013-06-19 20:34:00,65.0,48.0,-100.00,East,80,0.0,0.0,54,0.00,,,-99.99,,2013-06-20 00:34:00,
2013-06-19 20:44:00,64.0,47.0,-100.00,NNE,15,0.0,1.0,55,0.00,,,-99.99,,2013-06-20 00:44:00,
2013-06-19 20:52:00,63.0,48.0,-100.00,North,5,1.0,1.0,57,0.00,,,-99.99,,2013-06-20 00:52:00,
2013-06-19 21:02:00,62.0,47.0,-100.00,North,350,0.0,1.0,57,0.00,,,-99.99,,2013-06-20 01:02:00,
2013-06-19 21:11:00,62.0,46.0,-100.00,NNE,30,0.0,1.0,56,0.00,,,-99.99,,2013-06-20 01:11:00,
2013-06-19 21:22:00,61.0,46.0,-100.00,North,350,0.0,1.0,58,0.00,,,-99.99,,2013-06-20 01:22:00,
2013-06-19 21:33:00,61.0,45.0,-100.00,North,0,1.0,1.0,56,0.00,,,-99.99,,2013-06-20 01:33:00,
2013-06-19 21:44:00,60.0,46.0,-100.00,North,0,0.0,1.0,60,0.00,,,-99.99,,2013-06-20 01:44:00,
2013-06-19 21:52:00,60.0,46.0,-100.00,NNW,340,1.0,1.0,60,0.00,,,-99.99,,2013-06-20 01:52:00,
2013-06-19 22:02:00,60.0,46.0,-100.00,North,5,1.0,1.0,59,0.00,,,-99.99,,2013-06-20 02:02:00,
2013-06-19 22:12:00,59.0,46.0,-100.00,South,180,0.0,1.0,62,0.00,,,-99.99,,2013-06-20 02:12:00,
2013-06-19 22:24:00,59.0,47.0,-100.00,North,5,1.0,1.0,64,0.00,,,-99.99,,2013-06-20 02:24:00,
2013-06-19 22:34:00,58.0,46.0,-100.00,North,350,0.0,1.0,63,0.00,,,-99.99,,2013-06-20 02:34:00,
2013-06-19 22:43:00,58.0,46.0,-100.00,North,350,1.0,1.0,64,0.00,,,-99.99,,2013-06-20 02:43:00,
2013-06-19 22:52:00,58.0,47.0,-100.00,North,350,0.0,1.0,66,0.00,,,-99.99,,2013-06-20 02:52:00,
2013-06-19 23:02:00,57.0,47.0,-100.00,North,350,0.0,1.0,69,0.00,,,-99.99,,2013-06-20 03:02:00,
2013-06-19 23:11:00,57.0,47.0,-100.00,NNW,330,0.0,1.0,71,0.00,,,-99.99,,2013-06-20 03:11:00,
2013-06-19 23:22:00,56.0,48.0,-100.00,West,260,0.0,1.0,72,0.00,,,-99.99,,2013-06-20 03:22:00,
2013-06-19 23:33:00,56.0,47.0,-100.00,NW,315,0.0,1.0,72,0.00,,,-99.99,,2013-06-20 03:33:00,
2013-06-19 23:43:00,56.0,47.0,-100.00,North,0,0.0,1.0,74,0.00,,,-99.99,,2013-06-20 03:43:00,
2013-06-19 23:54:00,55.0,47.0,-100.00,North,350,0.0,1.0,74,0.00,,,-99.99,,2013-06-20 03:54:00,